YPPH/PER METAR and TAF weather

Enter ICAO airport designator
Station Type Date Time Source
YPPH METAR 2021/01/22 06:30 UTC NOAA

YPPH 220630Z 27014KT CAVOK 35/15 Q1001


Station Type Date Time Source
YPPH Decoded METAR 2021/01/22 06:30 UTC NOAA

Belmont Perth Airport , Australia (YPPH) 31-56S 115-57E 29M
Jan 22, 2021 - 01:30 AM EST / 2021.01.22 0630 UTC
Wind: from the W (270 degrees) at 16 MPH (14 KT):0
Visibility: greater than 7 mile(s):0
Temperature: 95 F (35 C)
Heat index: 94.5 F (34.7 C):1
Dew Point: 59 F (15 C)
Relative Humidity: 30%
Pressure (altimeter): 29.56 in. Hg (1001 hPa)
ob: YPPH 220630Z 27014KT CAVOK 35/15 Q1001
cycle: 6

Station Type Date Time Source
YPPH TAF 2021/01/22 06:33 UTC NOAA

TAF YPPH 220513Z 2206/2312 23014KT CAVOK
FM221200 17008KT CAVOK
FM230100 24014KT 9999 FEW030
FM231000 22010KT 9999 BKN020

Example: see airport list